Time;durP1;ratioP1;P1;durP2;ratioP2;P2;SDS_P1;SDS_P2;PMS_P1;PMS_P2;Temp;Humidity;BMP_temperature;BMP_pressure;BME280_temperature;BME280_humidity;BME280_pressure;Samples;Min_cycle;Max_cycle;Signal;HPM_P1;HPM_P2
2022/07/09 00:02:16;;;;;;;12.48;8.38;;;16.20;99.90;;;;;;4985043;28;20049;-74
2022/07/09 00:04:42;;;;;;;14.95;9.80;;;16.10;99.90;;;;;;4986901;28;20034;-74
2022/07/09 00:07:07;;;;;;;14.23;8.98;;;16.10;99.90;;;;;;4986394;28;20026;-74
2022/07/09 00:09:33;;;;;;;13.65;8.10;;;16.10;99.90;;;;;;4985945;28;20023;-75
2022/07/09 00:11:58;;;;;;;13.50;9.10;;;16.00;99.90;;;;;;4985418;28;20105;-74
2022/07/09 00:14:24;;;;;;;14.55;9.45;;;16.00;99.90;;;;;;4984266;28;20077;-74
2022/07/09 00:16:49;;;;;;;10.27;8.40;;;16.00;99.90;;;;;;4985415;28;20030;-75
2022/07/09 00:19:15;;;;;;;11.48;8.35;;;15.90;99.90;;;;;;5001421;28;20092;-74
2022/07/09 00:21:40;;;;;;;11.35;8.60;;;15.90;99.90;;;;;;4985744;28;20594;-75
2022/07/09 00:24:06;;;;;;;15.25;9.75;;;15.80;99.90;;;;;;4985973;28;20054;-74
2022/07/09 00:26:32;;;;;;;13.63;9.68;;;15.80;99.90;;;;;;4984582;28;20105;-74
2022/07/09 00:28:58;;;;;;;14.60;9.30;;;15.80;99.90;;;;;;4983597;28;20030;-74
2022/07/09 00:31:23;;;;;;;14.10;10.48;;;15.70;99.90;;;;;;4983548;28;20030;-74
2022/07/09 00:33:49;;;;;;;13.30;10.75;;;15.70;99.90;;;;;;4988924;28;20081;-74
2022/07/09 00:36:14;;;;;;;14.98;10.70;;;15.70;99.90;;;;;;4990258;28;20038;-74
2022/07/09 00:38:40;;;;;;;15.25;11.05;;;15.80;99.90;;;;;;4988523;28;20089;-74
2022/07/09 00:41:06;;;;;;;16.02;11.30;;;15.80;99.90;;;;;;4986948;28;20129;-74
2022/07/09 00:43:31;;;;;;;14.77;10.57;;;15.80;99.90;;;;;;4985754;28;20395;-74
2022/07/09 00:45:57;;;;;;;15.30;10.93;;;15.80;99.90;;;;;;4987868;28;20022;-74
2022/07/09 00:48:22;;;;;;;15.35;11.25;;;15.90;99.90;;;;;;4987986;28;20038;-74
2022/07/09 00:50:48;;;;;;;18.52;10.80;;;15.80;99.90;;;;;;4987592;28;20030;-75
2022/07/09 00:53:16;;;;;;;14.57;10.68;;;15.70;99.90;;;;;;4989285;28;20487;-74
2022/07/09 00:55:44;;;;;;;13.50;10.30;;;15.70;99.90;;;;;;4988852;28;20033;-75
2022/07/09 00:58:11;;;;;;;14.57;11.07;;;15.60;99.90;;;;;;4986985;28;20030;-73
2022/07/09 01:00:36;;;;;;;12.93;10.95;;;15.60;99.90;;;;;;4988573;28;20046;-74
2022/07/09 01:03:02;;;;;;;17.60;11.80;;;15.60;99.90;;;;;;4988251;28;20084;-74
2022/07/09 01:05:31;;;;;;;13.85;10.88;;;15.60;99.90;;;;;;4989648;28;20050;-74
2022/07/09 01:07:56;;;;;;;14.60;10.45;;;15.60;99.90;;;;;;4987103;28;20022;-73
2022/07/09 01:10:22;;;;;;;13.70;10.68;;;15.60;99.90;;;;;;4986074;28;20029;-73
2022/07/09 01:12:47;;;;;;;17.15;10.68;;;15.50;99.90;;;;;;4984888;28;20038;-74
2022/07/09 01:15:13;;;;;;;14.07;10.52;;;15.50;99.90;;;;;;4987062;28;20030;-73
2022/07/09 01:17:40;;;;;;;16.63;11.85;;;15.50;99.90;;;;;;4987753;28;20085;-74
2022/07/09 01:20:06;;;;;;;16.48;11.20;;;15.40;99.90;;;;;;4986206;28;20026;-74
2022/07/09 01:22:33;;;;;;;15.02;10.70;;;15.40;99.90;;;;;;4988065;28;20019;-74
2022/07/09 01:24:59;;;;;;;14.38;9.93;;;15.40;99.90;;;;;;4991052;28;20183;-73
2022/07/09 01:27:25;;;;;;;11.05;9.88;;;15.40;99.90;;;;;;4986383;28;20490;-74
2022/07/09 01:29:51;;;;;;;15.60;10.05;;;15.30;99.90;;;;;;4986303;28;20041;-73
2022/07/09 01:32:17;;;;;;;14.48;10.00;;;15.30;99.90;;;;;;4988134;28;20061;-74
2022/07/09 01:34:42;;;;;;;13.13;9.35;;;15.20;99.90;;;;;;4987933;28;20031;-74
2022/07/09 01:37:08;;;;;;;17.00;10.25;;;15.20;99.90;;;;;;4987512;28;20039;-73
2022/07/09 01:39:33;;;;;;;13.77;8.45;;;15.20;99.90;;;;;;4986553;28;20050;-74
2022/07/09 01:41:59;;;;;;;12.98;8.90;;;15.10;99.90;;;;;;4989457;28;20022;-73
2022/07/09 01:44:24;;;;;;;15.25;10.18;;;15.10;99.90;;;;;;4985039;28;20452;-74
2022/07/09 01:46:50;;;;;;;14.75;9.70;;;15.00;99.90;;;;;;4987048;28;20105;-74
2022/07/09 01:49:16;;;;;;;14.27;9.95;;;15.00;99.90;;;;;;4984892;28;20404;-75
2022/07/09 01:51:41;;;;;;;10.63;7.90;;;15.00;99.90;;;;;;4987288;28;20046;-75
2022/07/09 01:54:07;;;;;;;7.47;5.78;;;15.00;99.90;;;;;;4987069;28;20038;-74
2022/07/09 01:56:34;;;;;;;5.20;4.70;;;14.90;99.90;;;;;;4988057;28;20467;-73
2022/07/09 01:59:00;;;;;;;8.13;4.47;;;14.90;99.90;;;;;;4982914;28;20026;-73
2022/07/09 02:01:26;;;;;;;7.95;4.97;;;14.80;99.90;;;;;;4987913;28;20105;-73
2022/07/09 02:03:51;;;;;;;7.40;5.38;;;14.70;99.90;;;;;;4988104;28;20062;-74
2022/07/09 02:06:17;;;;;;;9.38;6.88;;;14.70;99.90;;;;;;4987670;28;20061;-74
2022/07/09 02:08:43;;;;;;;9.48;6.85;;;14.60;99.90;;;;;;4986463;28;20026;-74
2022/07/09 02:11:08;;;;;;;9.10;6.80;;;14.60;99.90;;;;;;4985532;28;20635;-73
2022/07/09 02:13:35;;;;;;;12.93;7.82;;;14.60;99.90;;;;;;4988133;28;20046;-73
2022/07/09 02:16:01;;;;;;;15.82;10.02;;;14.60;99.90;;;;;;4987611;28;20035;-74
2022/07/09 02:18:27;;;;;;;13.95;9.93;;;14.50;99.90;;;;;;4987345;28;20030;-74
2022/07/09 02:20:55;;;;;;;12.38;7.82;;;14.50;99.90;;;;;;4986624;28;20722;-74
2022/07/09 02:23:21;;;;;;;12.15;8.23;;;14.50;99.90;;;;;;4986657;28;20117;-73
2022/07/09 02:25:47;;;;;;;13.32;9.43;;;14.50;99.90;;;;;;4986982;28;20026;-73
2022/07/09 02:28:12;;;;;;;12.77;9.10;;;14.50;99.90;;;;;;4986483;28;20536;-74
2022/07/09 02:30:38;;;;;;;11.45;9.02;;;14.50;99.90;;;;;;4989532;28;20038;-73
2022/07/09 02:33:04;;;;;;;12.65;8.55;;;14.50;99.90;;;;;;4990930;28;20089;-74
2022/07/09 02:35:30;;;;;;;10.70;7.82;;;14.50;99.90;;;;;;4991115;28;20124;-74
2022/07/09 02:37:56;;;;;;;11.20;8.23;;;14.40;99.90;;;;;;4990313;28;20109;-74
2022/07/09 02:40:21;;;;;;;12.85;9.10;;;14.40;99.90;;;;;;4990204;28;20038;-74
2022/07/09 02:42:47;;;;;;;9.75;7.10;;;14.30;99.90;;;;;;4992018;28;20023;-74
2022/07/09 02:45:13;;;;;;;8.82;6.93;;;14.30;99.90;;;;;;4988410;28;20041;-73
2022/07/09 02:47:38;;;;;;;11.32;8.63;;;14.30;99.90;;;;;;4988621;28;20510;-74
2022/07/09 02:50:05;;;;;;;12.93;8.88;;;14.30;99.90;;;;;;4986197;28;20037;-74
2022/07/09 02:52:30;;;;;;;15.98;11.85;;;14.20;99.90;;;;;;4992329;28;20069;-74
2022/07/09 02:54:56;;;;;;;14.43;10.88;;;14.20;99.90;;;;;;4991032;28;20042;-74
2022/07/09 02:57:21;;;;;;;16.58;11.57;;;14.20;99.90;;;;;;4989003;28;20034;-74
2022/07/09 02:59:47;;;;;;;16.35;12.15;;;14.20;99.90;;;;;;4988307;28;20085;-73
2022/07/09 03:02:12;;;;;;;14.55;10.70;;;14.20;99.90;;;;;;4990540;28;20101;-73
2022/07/09 03:04:38;;;;;;;15.02;11.00;;;14.10;99.90;;;;;;4990689;28;20492;-74
2022/07/09 03:07:03;;;;;;;14.77;11.00;;;14.10;99.90;;;;;;4991182;28;20027;-74
2022/07/09 03:09:29;;;;;;;15.98;10.88;;;14.10;99.90;;;;;;4988207;28;20031;-73
2022/07/09 03:11:55;;;;;;;11.45;8.73;;;14.10;99.90;;;;;;4990222;28;20077;-74
2022/07/09 03:14:20;;;;;;;19.08;10.18;;;14.10;99.90;;;;;;4989793;28;20049;-75
2022/07/09 03:16:46;;;;;;;14.40;10.57;;;14.00;99.90;;;;;;4988979;28;20064;-75
2022/07/09 03:19:11;;;;;;;17.67;12.35;;;14.00;99.90;;;;;;4991466;28;20030;-73
2022/07/09 03:21:37;;;;;;;13.95;10.73;;;14.00;99.90;;;;;;4989570;28;20023;-74
2022/07/09 03:24:03;;;;;;;21.98;13.25;;;14.00;99.90;;;;;;4990853;28;20060;-73
2022/07/09 03:26:29;;;;;;;17.98;12.80;;;14.00;99.90;;;;;;4984084;28;20740;-73
2022/07/09 03:28:54;;;;;;;18.35;12.38;;;14.00;99.90;;;;;;4980042;28;20034;-74
2022/07/09 03:31:20;;;;;;;17.85;13.13;;;14.00;99.90;;;;;;4988426;28;20022;-74
2022/07/09 03:33:45;;;;;;;21.60;12.93;;;14.00;99.90;;;;;;4987081;28;20045;-73
2022/07/09 03:36:11;;;;;;;17.83;13.75;;;14.00;99.90;;;;;;4988624;28;20023;-75
2022/07/09 03:38:36;;;;;;;13.48;9.70;;;14.00;99.90;;;;;;4987723;28;20441;-74
2022/07/09 03:41:02;;;;;;;13.55;11.10;;;14.00;99.90;;;;;;4991896;28;20188;-74
2022/07/09 03:43:27;;;;;;;12.82;8.27;;;14.10;99.90;;;;;;4991802;28;20030;-74
2022/07/09 03:45:54;;;;;;;14.02;9.35;;;14.10;99.90;;;;;;4989349;28;20088;-74
2022/07/09 03:48:20;;;;;;;18.42;10.13;;;14.20;99.90;;;;;;4988512;28;20069;-73
2022/07/09 03:50:45;;;;;;;14.95;10.18;;;14.30;99.90;;;;;;4990560;28;20049;-74
2022/07/09 03:53:11;;;;;;;12.35;9.32;;;14.30;99.90;;;;;;4989624;28;20465;-74
2022/07/09 03:55:37;;;;;;;14.32;10.25;;;14.30;99.90;;;;;;4991827;28;20479;-74
2022/07/09 03:58:02;;;;;;;13.93;10.18;;;14.40;99.90;;;;;;4989412;28;20053;-74
2022/07/09 04:00:28;;;;;;;13.70;10.32;;;14.40;99.90;;;;;;4989160;28;20041;-75
2022/07/09 04:02:54;;;;;;;17.10;11.43;;;14.50;99.90;;;;;;4990408;28;20073;-74
2022/07/09 04:05:19;;;;;;;15.25;11.00;;;14.50;99.90;;;;;;4991236;28;20498;-74
2022/07/09 04:07:45;;;;;;;14.45;10.82;;;14.60;99.90;;;;;;4992970;28;20402;-74
2022/07/09 04:10:10;;;;;;;16.42;10.60;;;14.70;99.90;;;;;;4992732;28;20113;-74
2022/07/09 04:12:36;;;;;;;17.83;12.90;;;14.70;99.90;;;;;;4992311;28;20405;-75
2022/07/09 04:15:02;;;;;;;17.25;12.68;;;14.70;99.90;;;;;;4991447;28;20045;-74
2022/07/09 04:17:27;;;;;;;19.60;13.15;;;14.80;99.90;;;;;;4993750;28;20590;-74
2022/07/09 04:19:53;;;;;;;19.52;12.90;;;14.90;99.90;;;;;;4996953;28;20026;-74
2022/07/09 04:22:18;;;;;;;20.20;13.43;;;14.90;99.90;;;;;;4996035;28;20061;-74
2022/07/09 04:24:44;;;;;;;20.13;13.05;;;15.00;99.90;;;;;;4993327;28;20395;-74
2022/07/09 04:27:10;;;;;;;19.40;12.63;;;15.00;99.90;;;;;;4993437;28;20085;-74
2022/07/09 04:29:38;;;;;;;18.88;12.25;;;15.10;99.90;;;;;;4991067;28;20031;-74
2022/07/09 04:32:04;;;;;;;20.35;13.65;;;15.20;99.90;;;;;;4994880;28;20081;-74
2022/07/09 04:34:30;;;;;;;23.05;14.75;;;15.20;99.90;;;;;;4993675;28;20038;-74
2022/07/09 04:36:55;;;;;;;21.45;14.77;;;15.20;99.90;;;;;;4992428;28;20027;-74
2022/07/09 04:39:24;;;;;;;22.08;13.88;;;15.20;99.90;;;;;;4992994;28;20038;-74
2022/07/09 04:41:49;;;;;;;20.13;15.13;;;15.20;99.90;;;;;;4992262;28;20018;-75
2022/07/09 04:44:15;;;;;;;21.33;15.02;;;15.20;99.90;;;;;;4992077;28;20037;-74
2022/07/09 04:46:43;;;;;;;23.10;14.55;;;15.20;99.90;;;;;;4989735;28;20027;-74
2022/07/09 04:49:08;;;;;;;23.77;15.68;;;15.20;99.90;;;;;;4988546;28;20030;-74
2022/07/09 04:51:34;;;;;;;25.90;17.20;;;15.30;99.90;;;;;;4991889;28;20121;-73
2022/07/09 04:53:59;;;;;;;22.25;15.40;;;15.30;99.90;;;;;;4990835;28;20050;-75
2022/07/09 04:56:25;;;;;;;26.02;17.13;;;15.40;99.90;;;;;;4988285;28;20846;-74
2022/07/09 04:58:53;;;;;;;29.90;16.90;;;15.50;99.90;;;;;;4982420;28;20390;-74
2022/07/09 05:01:20;;;;;;;27.08;18.58;;;15.60;99.90;;;;;;4987398;28;20027;-75
2022/07/09 05:03:46;;;;;;;28.45;18.13;;;15.70;99.90;;;;;;4988277;28;20482;-75
2022/07/09 05:06:14;;;;;;;23.65;17.38;;;15.90;99.90;;;;;;4991500;28;20041;-75
2022/07/09 05:08:39;;;;;;;27.45;17.20;;;16.10;99.90;;;;;;4993283;28;20097;-73
2022/07/09 05:11:05;;;;;;;31.50;20.35;;;16.20;99.90;;;;;;4991522;28;20034;-75
2022/07/09 05:13:30;;;;;;;33.28;22.05;;;16.30;99.90;;;;;;4992226;28;20077;-75
2022/07/09 05:15:56;;;;;;;35.58;23.92;;;16.40;99.90;;;;;;4994208;28;20019;-73
2022/07/09 05:18:22;;;;;;;36.25;22.95;;;16.60;99.90;;;;;;4989084;28;20077;-73
2022/07/09 05:20:47;;;;;;;30.70;23.58;;;16.80;99.90;;;;;;4990571;28;20081;-74
2022/07/09 05:23:13;;;;;;;34.78;24.02;;;17.10;99.90;;;;;;4991735;28;20120;-73
2022/07/09 05:25:38;;;;;;;32.70;21.80;;;17.30;99.90;;;;;;4994057;28;20030;-74
2022/07/09 05:28:04;;;;;;;30.05;20.70;;;17.50;99.90;;;;;;4989985;28;20026;-74
2022/07/09 05:30:29;;;;;;;31.75;21.58;;;17.90;99.90;;;;;;4987425;28;20033;-74
2022/07/09 05:32:55;;;;;;;25.30;20.90;;;18.10;99.90;;;;;;4990107;28;20062;-74
2022/07/09 05:35:20;;;;;;;33.00;21.63;;;18.20;99.90;;;;;;4992532;28;20643;-74
2022/07/09 05:37:46;;;;;;;33.38;22.77;;;18.40;99.90;;;;;;4993541;28;20053;-74
2022/07/09 05:40:12;;;;;;;30.60;21.77;;;18.50;99.90;;;;;;4990649;28;20081;-74
2022/07/09 05:42:39;;;;;;;32.88;21.70;;;18.50;99.90;;;;;;4988599;28;20030;-74
2022/07/09 05:45:05;;;;;;;26.38;19.20;;;18.60;99.90;;;;;;4985403;28;20530;-74
2022/07/09 05:47:31;;;;;;;29.90;20.80;;;18.80;99.90;;;;;;4992456;28;20034;-74
2022/07/09 05:49:57;;;;;;;30.08;20.42;;;18.90;99.90;;;;;;4980388;28;20093;-74
2022/07/09 05:52:22;;;;;;;28.23;19.67;;;19.00;99.90;;;;;;4987413;28;20046;-73
2022/07/09 05:54:48;;;;;;;27.52;19.85;;;19.10;99.90;;;;;;4985825;28;20042;-74
2022/07/09 05:57:13;;;;;;;28.88;19.83;;;19.20;99.90;;;;;;4988773;28;20027;-74
2022/07/09 05:59:39;;;;;;;30.02;18.95;;;19.20;99.90;;;;;;4986943;28;20076;-74
2022/07/09 06:02:05;;;;;;;27.50;19.35;;;19.20;99.90;;;;;;4989566;28;20023;-74
2022/07/09 06:04:31;;;;;;;30.17;20.23;;;19.10;99.90;;;;;;4993255;28;20506;-73
2022/07/09 06:06:56;;;;;;;29.67;20.48;;;19.10;99.90;;;;;;4993413;28;20030;-73
2022/07/09 06:09:22;;;;;;;28.52;18.75;;;19.00;99.90;;;;;;4988615;28;20032;-74
2022/07/09 06:11:47;;;;;;;32.60;21.02;;;19.00;99.90;;;;;;4985340;28;20026;-73
2022/07/09 06:14:13;;;;;;;30.20;20.52;;;19.10;99.90;;;;;;4989619;28;20123;-73
2022/07/09 06:16:38;;;;;;;29.42;20.50;;;19.10;99.90;;;;;;4990705;28;20026;-73
2022/07/09 06:19:04;;;;;;;29.38;21.08;;;19.10;99.90;;;;;;4985125;28;20109;-73
2022/07/09 06:21:30;;;;;;;30.10;21.25;;;19.10;99.90;;;;;;4989115;28;20073;-73
2022/07/09 06:23:55;;;;;;;27.80;19.98;;;19.10;99.90;;;;;;4993308;28;20057;-73
2022/07/09 06:26:21;;;;;;;29.92;20.77;;;19.20;99.90;;;;;;4987975;28;20030;-74
2022/07/09 06:28:46;;;;;;;27.30;18.65;;;19.50;99.90;;;;;;4990756;28;20030;-73
2022/07/09 06:31:12;;;;;;;22.55;17.95;;;19.70;99.90;;;;;;4977324;28;20042;-74
2022/07/09 06:33:38;;;;;;;22.42;17.00;;;19.70;99.90;;;;;;4977235;28;20043;-73
2022/07/09 06:36:04;;;;;;;18.00;15.35;;;19.80;99.90;;;;;;4978520;28;20088;-74
2022/07/09 06:38:29;;;;;;;21.38;14.40;;;19.90;99.90;;;;;;4973648;28;20109;-74
2022/07/09 06:40:56;;;;;;;19.40;15.50;;;19.80;99.90;;;;;;4979277;28;20026;-74
2022/07/09 06:43:22;;;;;;;18.10;15.10;;;19.90;99.90;;;;;;4974390;28;20128;-74
2022/07/09 06:45:47;;;;;;;18.80;15.27;;;19.90;99.90;;;;;;4980478;28;20031;-73
2022/07/09 06:48:13;;;;;;;21.67;14.20;;;19.90;99.90;;;;;;4987936;28;20113;-73
2022/07/09 06:50:38;;;;;;;17.90;13.98;;;20.00;99.90;;;;;;4987439;28;20483;-73
2022/07/09 06:53:04;;;;;;;20.75;14.07;;;20.20;99.90;;;;;;4988339;28;20042;-73
2022/07/09 06:55:30;;;;;;;16.20;13.10;;;20.40;99.90;;;;;;4975687;28;20053;-73
2022/07/09 06:57:57;;;;;;;17.35;12.35;;;20.40;99.90;;;;;;4973562;28;20435;-73
2022/07/09 07:00:23;;;;;;;15.10;12.88;;;20.50;99.90;;;;;;4987067;28;20034;-73
2022/07/09 07:02:49;;;;;;;14.90;10.80;;;20.60;99.90;;;;;;4988248;28;20092;-74
2022/07/09 07:05:15;;;;;;;11.98;9.30;;;20.80;99.90;;;;;;4988102;28;20022;-74
2022/07/09 07:07:40;;;;;;;13.10;8.68;;;20.80;99.90;;;;;;4984814;28;20042;-73
2022/07/09 07:10:06;;;;;;;10.60;9.13;;;20.80;99.90;;;;;;4990825;28;20248;-74
2022/07/09 07:12:32;;;;;;;13.55;9.10;;;20.80;99.90;;;;;;4987358;28;20061;-73
2022/07/09 07:14:57;;;;;;;10.35;8.38;;;20.80;99.90;;;;;;4986168;28;20042;-73
2022/07/09 07:17:23;;;;;;;14.07;8.50;;;20.80;99.90;;;;;;4990714;28;20498;-74
2022/07/09 07:19:48;;;;;;;11.27;8.63;;;20.90;99.90;;;;;;4981628;28;20089;-73
2022/07/09 07:22:14;;;;;;;11.88;9.20;;;20.90;99.90;;;;;;4989123;28;20682;-73
2022/07/09 07:24:40;;;;;;;16.48;9.05;;;21.00;99.90;;;;;;4990357;28;20033;-73
2022/07/09 07:27:05;;;;;;;11.50;8.38;;;21.10;99.90;;;;;;4986982;28;20438;-73
2022/07/09 07:29:31;;;;;;;12.35;9.20;;;21.20;99.90;;;;;;4991145;28;20065;-74
2022/07/09 07:31:57;;;;;;;11.32;8.48;;;21.30;99.90;;;;;;4983138;28;20026;-74
2022/07/09 07:34:24;;;;;;;13.70;8.93;;;21.30;99.90;;;;;;4976416;28;20030;-73
2022/07/09 07:36:51;;;;;;;11.20;8.50;;;21.30;99.90;;;;;;4978981;28;20110;-74
2022/07/09 07:39:17;;;;;;;11.68;8.32;;;21.40;99.90;;;;;;4979338;28;20037;-73
2022/07/09 07:41:42;;;;;;;11.15;9.20;;;21.60;99.90;;;;;;4980630;28;20030;-73
2022/07/09 07:44:08;;;;;;;10.70;8.02;;;21.70;99.90;;;;;;4980005;28;20030;-73
2022/07/09 07:46:33;;;;;;;12.55;8.25;;;21.90;99.90;;;;;;4982927;28;20023;-73
2022/07/09 07:48:59;;;;;;;9.25;7.40;;;22.00;99.90;;;;;;4984132;28;20026;-73
2022/07/09 07:51:24;;;;;;;11.13;7.78;;;22.10;99.90;;;;;;4982344;28;23645;-76
2022/07/09 07:53:50;;;;;;;8.18;5.93;;;22.10;99.90;;;;;;4982063;28;20038;-73
2022/07/09 07:56:16;;;;;;;10.93;6.90;;;22.20;99.90;;;;;;4980781;28;20426;-73
2022/07/09 07:58:41;;;;;;;9.68;6.57;;;22.20;99.90;;;;;;4979985;28;20038;-73
2022/07/09 08:01:07;;;;;;;10.85;7.10;;;22.30;99.90;;;;;;4979980;28;20061;-74
2022/07/09 08:03:32;;;;;;;12.88;8.32;;;22.40;99.90;;;;;;4987886;28;20076;-73
2022/07/09 08:05:58;;;;;;;11.13;7.63;;;22.50;99.90;;;;;;4987006;28;20030;-73
2022/07/09 08:08:24;;;;;;;10.45;7.80;;;22.60;99.90;;;;;;4986327;28;20081;-73
2022/07/09 08:10:49;;;;;;;12.93;9.02;;;22.70;99.90;;;;;;4983291;28;20023;-73
2022/07/09 08:13:16;;;;;;;12.27;9.30;;;22.90;99.90;;;;;;4984999;28;20046;-73
2022/07/09 08:15:42;;;;;;;12.95;10.13;;;23.00;99.90;;;;;;4983508;28;20031;-73
2022/07/09 08:18:12;;;;;;;13.40;9.95;;;23.10;99.90;;;;;;4988324;28;20041;-73
2022/07/09 08:20:39;;;;;;;14.65;10.10;;;23.10;99.90;;;;;;4988186;28;20117;-73
2022/07/09 08:23:05;;;;;;;13.25;9.70;;;23.10;99.90;;;;;;4981931;28;20034;-74
2022/07/09 08:25:30;;;;;;;11.15;9.93;;;23.30;99.90;;;;;;4984097;28;20041;-74
2022/07/09 08:27:56;;;;;;;11.52;10.25;;;23.50;99.90;;;;;;4988396;28;20041;-74
2022/07/09 08:30:21;;;;;;;12.75;10.40;;;23.70;99.90;;;;;;4980181;28;20062;-74
2022/07/09 08:32:47;;;;;;;10.70;9.15;;;23.70;99.90;;;;;;4986615;28;20034;-73
2022/07/09 08:35:13;;;;;;;12.23;10.63;;;23.70;99.90;;;;;;4988487;28;20113;-74
2022/07/09 08:37:38;;;;;;;14.25;9.98;;;23.70;99.90;;;;;;4996273;28;20369;-74
2022/07/09 08:40:05;;;;;;;14.07;10.65;;;23.70;99.90;;;;;;4988020;28;20042;-73
2022/07/09 08:42:31;;;;;;;13.88;10.98;;;23.80;99.90;;;;;;4990494;28;20033;-73
2022/07/09 08:44:58;;;;;;;13.57;10.38;;;23.70;99.90;;;;;;4986543;28;20030;-74
2022/07/09 08:47:24;;;;;;;15.18;9.85;;;23.60;99.90;;;;;;4986012;28;20033;-74
2022/07/09 08:49:56;;;;;;;14.05;9.68;;;23.60;99.90;;;;;;4984719;28;20042;-73
2022/07/09 08:52:23;;;;;;;12.88;9.38;;;23.60;99.90;;;;;;4987104;28;20061;-74
2022/07/09 08:54:48;;;;;;;10.90;9.63;;;23.70;99.90;;;;;;4989177;28;20109;-74
2022/07/09 08:57:14;;;;;;;9.77;7.43;;;23.80;99.90;;;;;;4989442;28;20117;-73
2022/07/09 08:59:39;;;;;;;8.85;7.40;;;23.70;99.90;;;;;;4992831;28;20034;-74
2022/07/09 09:02:06;;;;;;;10.00;8.18;;;23.70;99.90;;;;;;4988551;28;20160;-74
2022/07/09 09:04:34;;;;;;;9.75;7.75;;;23.60;99.90;;;;;;4987132;28;20027;-74
2022/07/09 09:07:10;;;;;;;10.45;7.90;;;23.40;99.90;;;;;;4989323;28;20030;-74
2022/07/09 09:09:36;;;;;;;9.65;7.97;;;23.40;99.90;;;;;;4989425;28;20102;-74
2022/07/09 09:12:02;;;;;;;11.80;9.00;;;23.40;99.90;;;;;;4989546;28;20478;-74
2022/07/09 09:14:29;;;;;;;10.25;9.15;;;23.40;99.90;;;;;;4991860;28;20125;-74
2022/07/09 09:17:03;;;;;;;8.60;6.45;;;23.50;99.90;;;;;;4993184;28;20050;-74
2022/07/09 09:19:29;;;;;;;7.22;5.28;;;23.70;99.90;;;;;;4991503;28;20038;-74
2022/07/09 09:21:55;;;;;;;9.35;6.43;;;23.80;99.90;;;;;;4989736;28;20379;-74
2022/07/09 09:24:26;;;;;;;12.82;8.07;;;23.80;99.90;;;;;;4990575;28;20050;-74
2022/07/09 09:26:52;;;;;;;9.00;7.47;;;23.90;99.90;;;;;;4993139;28;20029;-74
2022/07/09 09:29:18;;;;;;;9.82;6.57;;;23.90;99.90;;;;;;4977190;28;20046;-74
2022/07/09 09:31:45;;;;;;;9.70;5.90;;;23.80;99.90;;;;;;4984142;28;20035;-74
2022/07/09 09:34:15;;;;;;;9.50;6.53;;;23.60;99.90;;;;;;4982251;28;20495;-75
2022/07/09 09:36:43;;;;;;;23.50;7.25;;;23.50;99.90;;;;;;4983621;28;20030;-76
2022/07/09 09:39:23;;;;;;;11.82;8.75;;;23.40;99.90;;;;;;4984139;28;20093;-76
2022/07/09 09:41:54;;;;;;;10.02;7.53;;;23.50;99.90;;;;;;4984701;28;20034;-76
2022/07/09 09:44:24;;;;;;;11.50;7.07;;;23.60;99.90;;;;;;4983429;28;20072;-75
2022/07/09 09:46:50;;;;;;;10.38;7.95;;;23.80;99.90;;;;;;4982129;28;20069;-76
2022/07/09 09:49:16;;;;;;;10.52;7.45;;;23.80;99.90;;;;;;4983153;28;20124;-76
2022/07/09 09:51:54;;;;;;;11.30;7.88;;;23.80;99.90;;;;;;4982041;28;20042;-76
2022/07/09 09:54:21;;;;;;;10.38;6.47;;;23.80;99.90;;;;;;4982144;28;20046;-76
2022/07/09 09:56:47;;;;;;;9.88;6.85;;;23.90;99.90;;;;;;4985113;28;20054;-76
2022/07/09 09:59:14;;;;;;;9.20;6.75;;;24.20;99.90;;;;;;4981571;28;20141;-76
2022/07/09 10:01:41;;;;;;;7.63;5.57;;;24.30;99.90;;;;;;4981757;28;20026;-76
2022/07/09 10:04:07;;;;;;;9.60;5.78;;;24.40;99.90;;;;;;4986473;28;20026;-76
2022/07/09 10:06:33;;;;;;;8.68;7.10;;;24.30;99.90;;;;;;4988531;28;20041;-75
2022/07/09 10:09:02;;;;;;;9.30;6.75;;;24.10;99.90;;;;;;4984319;28;20391;-75
2022/07/09 10:11:38;;;;;;;11.00;6.95;;;23.90;99.90;;;;;;4989376;28;20053;-76
2022/07/09 10:14:03;;;;;;;9.05;6.85;;;23.80;99.90;;;;;;4990791;28;20030;-75
2022/07/09 10:16:36;;;;;;;8.77;6.25;;;23.60;99.90;;;;;;4988017;28;20352;-76
2022/07/09 10:19:02;;;;;;;9.52;6.38;;;23.70;99.90;;;;;;4975901;28;20084;-76
2022/07/09 10:21:37;;;;;;;7.25;6.55;;;23.80;99.90;;;;;;4987231;28;20027;-75
2022/07/09 10:24:07;;;;;;;6.70;5.50;;;23.80;99.90;;;;;;4987233;28;20038;-76
2022/07/09 10:26:46;;;;;;;7.07;5.70;;;24.00;99.90;;;;;;4990682;28;20023;-75
2022/07/09 10:29:26;;;;;;;10.25;6.45;;;24.20;99.90;;;;;;4990247;28;20038;-75
2022/07/09 10:31:56;;;;;;;7.35;5.70;;;24.30;99.80;;;;;;4984584;28;20046;-75
2022/07/09 10:34:37;;;;;;;8.18;5.72;;;24.50;99.90;;;;;;4984811;28;20038;-76
2022/07/09 10:37:04;;;;;;;7.63;5.95;;;24.70;99.20;;;;;;4979147;28;20414;-75
2022/07/09 10:39:31;;;;;;;8.38;6.18;;;24.60;98.70;;;;;;4989024;28;20080;-76
2022/07/09 10:42:21;;;;;;;8.55;6.40;;;24.20;98.70;;;;;;4989839;28;20038;-76
2022/07/09 10:44:49;;;;;;;9.60;5.25;;;24.00;99.00;;;;;;4974525;28;20459;-76
2022/07/09 10:47:15;;;;;;;10.50;6.20;;;23.90;99.50;;;;;;4989121;28;20081;-75
2022/07/09 10:49:41;;;;;;;11.93;5.50;;;23.90;99.20;;;;;;4991412;28;20022;-76
2022/07/09 10:52:07;;;;;;;4.85;3.35;;;23.80;99.20;;;;;;4990171;28;20491;-75
2022/07/09 10:54:33;;;;;;;4.68;2.20;;;23.70;99.10;;;;;;4989374;28;20129;-75
2022/07/09 10:56:59;;;;;;;5.25;2.08;;;23.50;98.90;;;;;;4985353;28;20121;-76
2022/07/09 10:59:25;;;;;;;7.00;2.13;;;23.40;98.90;;;;;;4990199;28;20042;-76
2022/07/09 11:01:51;;;;;;;3.15;1.40;;;23.40;98.80;;;;;;4986220;28;20022;-75
2022/07/09 11:04:31;;;;;;;3.55;1.13;;;23.50;98.80;;;;;;4985876;28;20040;-75
2022/07/09 11:06:57;;;;;;;3.10;0.98;;;23.80;98.00;;;;;;4981976;28;20485;-75
2022/07/09 11:09:25;;;;;;;1.73;0.82;;;23.90;97.60;;;;;;4984670;28;20031;-75
2022/07/09 11:11:50;;;;;;;3.05;1.00;;;24.00;97.40;;;;;;4989083;28;20034;-75
2022/07/09 11:14:16;;;;;;;5.05;0.90;;;24.30;97.30;;;;;;4991591;28;20034;-75
2022/07/09 11:16:42;;;;;;;2.25;0.68;;;24.50;96.90;;;;;;4989434;28;20351;-74
2022/07/09 11:19:15;;;;;;;2.58;0.60;;;24.70;96.60;;;;;;4986402;28;20038;-75
2022/07/09 11:21:41;;;;;;;1.30;0.50;;;24.80;95.60;;;;;;4991043;28;20104;-74
2022/07/09 11:24:16;;;;;;;2.45;0.50;;;24.60;95.40;;;;;;4989708;28;20487;-75
2022/07/09 11:26:42;;;;;;;0.73;0.50;;;24.40;95.50;;;;;;4989011;28;20089;-74
2022/07/09 11:29:09;;;;;;;1.20;0.40;;;24.30;96.10;;;;;;4980227;28;20053;-75
2022/07/09 11:31:35;;;;;;;1.08;0.40;;;24.30;95.50;;;;;;4975792;28;20022;-76
2022/07/09 11:34:11;;;;;;;2.00;0.40;;;24.20;95.00;;;;;;4989647;28;20030;-76
2022/07/09 11:36:38;;;;;;;1.98;0.40;;;24.00;95.10;;;;;;4989843;28;20493;-73
2022/07/09 11:39:03;;;;;;;2.08;0.35;;;23.90;95.40;;;;;;4991390;28;20038;-74
2022/07/09 11:41:43;;;;;;;1.50;0.40;;;23.80;95.30;;;;;;4988768;28;20034;-76
2022/07/09 11:44:09;;;;;;;2.70;0.40;;;23.90;95.00;;;;;;4990023;28;20053;-76
2022/07/09 11:46:37;;;;;;;1.33;0.30;;;24.00;95.10;;;;;;4988864;28;20478;-76
2022/07/09 11:49:13;;;;;;;0.80;0.30;;;24.00;94.80;;;;;;4986388;28;20026;-76
2022/07/09 11:51:39;;;;;;;1.55;0.40;;;24.20;94.90;;;;;;4978129;28;20065;-74
2022/07/09 11:54:05;;;;;;;1.27;0.30;;;24.60;94.50;;;;;;4978271;28;20038;-75
2022/07/09 11:56:45;;;;;;;0.98;0.30;;;24.70;94.10;;;;;;4989584;28;20034;-75
2022/07/09 11:59:24;;;;;;;0.95;0.30;;;24.70;93.90;;;;;;4978984;28;20052;-74
2022/07/09 12:01:50;;;;;;;3.60;0.40;;;24.70;93.30;;;;;;4979241;28;20483;-75
2022/07/09 12:04:20;;;;;;;2.78;0.30;;;24.70;93.00;;;;;;4988575;28;20068;-75
2022/07/09 12:06:52;;;;;;;1.90;0.40;;;24.60;92.60;;;;;;4992091;28;20026;-75
2022/07/09 12:09:29;;;;;;;2.42;0.40;;;24.50;92.30;;;;;;4991236;28;20018;-75
2022/07/09 12:11:55;;;;;;;3.65;0.30;;;24.30;92.40;;;;;;4976359;28;20064;-75
2022/07/09 12:14:20;;;;;;;2.63;0.30;;;24.30;92.60;;;;;;4988741;28;20093;-75
2022/07/09 12:16:46;;;;;;;39.58;2.58;;;24.10;92.50;;;;;;4991084;28;20034;-75
2022/07/09 12:19:11;;;;;;;1.58;0.40;;;24.00;92.80;;;;;;4990852;28;20069;-75
2022/07/09 12:21:37;;;;;;;5.85;0.40;;;24.00;92.90;;;;;;4991147;28;20102;-75
2022/07/09 12:24:02;;;;;;;4.05;0.75;;;24.00;92.70;;;;;;4990443;28;20387;-75
2022/07/09 12:26:30;;;;;;;2.08;0.35;;;24.00;92.60;;;;;;4990943;28;20034;-75
2022/07/09 12:28:56;;;;;;;1.98;0.30;;;24.00;92.40;;;;;;4993595;28;20034;-75
2022/07/09 12:31:22;;;;;;;2.00;0.30;;;24.20;92.50;;;;;;4990400;28;20037;-75
2022/07/09 12:33:47;;;;;;;2.75;0.35;;;24.30;92.70;;;;;;4994727;28;20070;-75